Time;durP1;ratioP1;P1;durP2;ratioP2;P2;SDS_P1;SDS_P2;PMS_P1;PMS_P2;Temp;Humidity;BMP_temperature;BMP_pressure;BME280_temperature;BME280_humidity;BME280_pressure;Samples;Min_cycle;Max_cycle;Signal;HPM_P1;HPM_P2
2023/04/21 00:00:59;;;;;;;;;;;;;;;15.49;54.99;100335.28;5017612;28;1027;-46
2023/04/21 00:03:26;;;;;;;;;;;;;;;16.70;53.93;100338.88;5019940;28;1040;-45
2023/04/21 00:05:52;;;;;;;;;;;;;;;16.73;53.73;100330.06;5017403;28;1087;-44
2023/04/21 00:08:17;;;;;;;;;;;;;;;16.06;55.36;100328.53;5017742;28;1229;-42
2023/04/21 00:10:43;;;;;;;;;;;;;;;15.84;55.23;100325.34;5017080;28;1187;-46
2023/04/21 00:13:09;;;;;;;;;;;;;;;15.66;55.44;100324.81;5017531;28;1100;-47
2023/04/21 00:15:34;;;;;;;;;;;;;;;15.57;55.15;100316.34;5021170;28;1163;-43
2023/04/21 00:18:00;;;;;;;;;;;;;;;16.68;54.34;100322.69;5023021;28;1911;-47
2023/04/21 00:20:25;;;;;;;;;;;;;;;17.41;51.96;100318.25;5016819;28;1080;-43
2023/04/21 00:22:52;;;;;;;;;;;;;;;16.42;54.15;100320.13;5017297;28;1198;-47
2023/04/21 00:25:17;;;;;;;;;;;;;;;16.01;55.21;100314.03;5017652;28;1186;-44
2023/04/21 00:27:43;;;;;;;;;;;;;;;15.83;55.17;100313.53;5020237;28;1126;-48
2023/04/21 00:30:09;;;;;;;;;;;;;;;15.64;55.01;100315.22;5022187;28;1139;-45
2023/04/21 00:32:36;;;;;;;;;;;;;;;15.53;55.18;100319.91;5022550;28;1405;-44
2023/04/21 00:35:02;;;;;;;;;;;;;;;15.60;55.37;100317.69;5017304;28;1032;-45
2023/04/21 00:37:27;;;;;;;;;;;;;;;17.04;53.40;100319.72;5016962;28;1914;-48
2023/04/21 00:39:53;;;;;;;;;;;;;;;16.98;53.25;100309.84;5019829;28;1028;-45
2023/04/21 00:42:19;;;;;;;;;;;;;;;16.19;55.02;100304.34;5023935;28;1117;-47
2023/04/21 00:44:44;;;;;;;;;;;;;;;15.88;55.21;100304.50;5016751;28;1186;-45
2023/04/21 00:47:10;;;;;;;;;;;;;;;15.68;55.52;100299.84;5015644;28;1254;-46
2023/04/21 00:49:36;;;;;;;;;;;;;;;15.54;55.25;100310.56;5016978;28;1210;-47
2023/04/21 00:52:03;;;;;;;;;;;;;;;16.98;53.46;100312.59;5020950;28;1055;-45
2023/04/21 00:54:28;;;;;;;;;;;;;;;17.09;52.89;100302.34;5016890;28;1284;-45
2023/04/21 00:56:54;;;;;;;;;;;;;;;16.25;54.50;100295.78;5016693;28;1903;-46
2023/04/21 00:59:20;;;;;;;;;;;;;;;15.90;55.06;100297.59;5016631;28;1134;-43
2023/04/21 01:01:45;;;;;;;;;;;;;;;15.80;55.27;100294.09;5015310;28;1115;-43
2023/04/21 01:04:11;;;;;;;;;;;;;;;15.60;55.41;100295.78;5021794;28;1075;-43
2023/04/21 01:06:36;;;;;;;;;;;;;;;15.52;55.27;100299.09;5023928;28;1123;-45
2023/04/21 01:09:03;;;;;;;;;;;;;;;16.83;54.02;100293.47;5016919;28;1170;-46
2023/04/21 01:11:30;;;;;;;;;;;;;;;16.75;53.51;100292.19;5016280;28;1011;-46
2023/04/21 01:13:55;;;;;;;;;;;;;;;16.05;55.31;100282.19;5016892;28;1157;-43
2023/04/21 01:16:22;;;;;;;;;;;;;;;15.80;55.46;100292.16;5022955;28;984;-45
2023/04/21 01:18:48;;;;;;;;;;;;;;;15.69;55.49;100279.56;5015626;28;1914;-43
2023/04/21 01:21:14;;;;;;;;;;;;;;;15.85;55.83;100274.88;5015056;28;1292;-41
2023/04/21 01:23:40;;;;;;;;;;;;;;;17.31;52.60;100281.84;5016689;28;1071;-44
2023/04/21 01:26:05;;;;;;;;;;;;;;;16.53;54.13;100278.88;4999007;28;1406;-46
2023/04/21 01:28:35;;;;;;;;;;;;;;;16.04;55.15;100273.13;5016041;28;1123;-44
2023/04/21 01:31:02;;;;;;;;;;;;;;;15.80;55.27;100270.22;5015250;28;1223;-47
2023/04/21 01:33:27;;;;;;;;;;;;;;;15.64;55.30;100266.72;5028250;28;1175;-47
2023/04/21 01:35:54;;;;;;;;;;;;;;;16.39;54.81;100265.78;5008592;28;1107;-48
2023/04/21 01:38:20;;;;;;;;;;;;;;;17.54;51.84;100267.25;5016669;28;1981;-47
2023/04/21 01:40:49;;;;;;;;;;;;;;;16.53;53.92;100270.66;5023023;28;1151;-48
2023/04/21 01:43:15;;;;;;;;;;;;;;;16.06;54.98;100262.72;5014968;28;1127;-47
2023/04/21 01:45:41;;;;;;;;;;;;;;;15.88;54.91;100255.13;5014836;28;1226;-44
2023/04/21 01:48:06;;;;;;;;;;;;;;;15.70;55.07;100251.88;5016380;28;1052;-47
2023/04/21 01:50:32;;;;;;;;;;;;;;;15.59;54.92;100263.19;5016308;28;1103;-47
2023/04/21 01:52:57;;;;;;;;;;;;;;;16.74;54.05;100260.34;5010425;28;1429;-47
2023/04/21 01:55:24;;;;;;;;;;;;;;;17.08;52.81;100263.09;5009912;28;1140;-43
2023/04/21 01:57:49;;;;;;;;;;;;;;;16.23;54.54;100256.84;5015054;28;1972;-46
2023/04/21 02:00:15;;;;;;;;;;;;;;;15.95;54.96;100252.91;5014857;28;1221;-43
2023/04/21 02:02:41;;;;;;;;;;;;;;;15.76;55.29;100249.94;5015763;28;1206;-46
2023/04/21 02:05:06;;;;;;;;;;;;;;;15.60;55.23;100251.94;5027702;28;1071;-42
2023/04/21 02:07:32;;;;;;;;;;;;;;;16.69;54.32;100252.13;5019920;28;1226;-45
2023/04/21 02:09:58;;;;;;;;;;;;;;;17.17;52.60;100252.28;5019734;28;1182;-44
2023/04/21 02:12:23;;;;;;;;;;;;;;;16.25;54.71;100259.31;5018651;28;1146;-42
2023/04/21 02:14:49;;;;;;;;;;;;;;;16.01;54.82;100246.28;5019432;28;1035;-47
2023/04/21 02:17:16;;;;;;;;;;;;;;;15.76;55.04;100241.72;5013168;28;1914;-45
2023/04/21 02:19:42;;;;;;;;;;;;;;;15.67;55.11;100244.22;5018359;28;1252;-44
2023/04/21 02:22:09;;;;;;;;;;;;;;;16.62;54.28;100249.75;5019645;28;1225;-42
2023/04/21 02:24:35;;;;;;;;;;;;;;;17.09;52.68;100245.47;5019248;28;1088;-46
2023/04/21 02:27:01;;;;;;;;;;;;;;;16.27;54.76;100250.78;5019813;28;1060;-45
2023/04/21 02:29:27;;;;;;;;;;;;;;;15.91;55.17;100246.34;5017994;28;1207;-44
2023/04/21 02:31:53;;;;;;;;;;;;;;;15.77;54.96;100240.63;5019435;28;1040;-42
2023/04/21 02:34:19;;;;;;;;;;;;;;;15.65;55.06;100243.66;5018726;28;1276;-43
2023/04/21 02:36:45;;;;;;;;;;;;;;;17.04;53.20;100248.28;5018121;28;1556;-43
2023/04/21 02:39:10;;;;;;;;;;;;;;;16.55;54.25;100246.47;5019279;28;1906;-44
2023/04/21 02:41:37;;;;;;;;;;;;;;;16.03;55.10;100240.50;5021979;28;837;-48
2023/04/21 02:44:02;;;;;;;;;;;;;;;15.83;54.92;100241.44;5018872;28;1119;-44
2023/04/21 02:46:28;;;;;;;;;;;;;;;15.64;55.16;100239.31;5019059;28;1170;-43
2023/04/21 02:48:53;;;;;;;;;;;;;;;16.70;54.05;100231.81;5016825;28;1459;-47
2023/04/21 02:51:19;;;;;;;;;;;;;;;16.89;53.38;100229.22;5019225;28;1157;-44
2023/04/21 02:53:45;;;;;;;;;;;;;;;16.15;54.70;100220.97;5027581;28;1157;-47
2023/04/21 02:56:10;;;;;;;;;;;;;;;15.88;54.99;100228.53;5033952;28;1255;-48
2023/04/21 02:58:36;;;;;;;;;;;;;;;15.77;54.95;100237.03;5018685;28;1894;-48
2023/04/21 03:01:02;;;;;;;;;;;;;;;15.60;55.17;100224.53;5018787;28;1111;-50
2023/04/21 03:03:28;;;;;;;;;;;;;;;16.52;54.54;100230.59;5018776;28;1023;-51
2023/04/21 03:06:00;;;;;;;;;;;;;;;17.43;52.06;100230.00;5021168;28;1177;-45
2023/04/21 03:08:26;;;;;;;;;;;;;;;16.34;54.43;100224.69;5018765;28;1071;-50
2023/04/21 03:10:52;;;;;;;;;;;;;;;16.02;55.05;100222.41;5018705;28;1059;-48
2023/04/21 03:13:20;;;;;;;;;;;;;;;15.77;55.14;100229.66;5017294;28;1095;-49
2023/04/21 03:15:49;;;;;;;;;;;;;;;16.67;54.26;100224.97;5016497;28;1352;-49
2023/04/21 03:18:15;;;;;;;;;;;;;;;16.68;53.66;100237.59;5029070;28;1914;-49
2023/04/21 03:20:40;;;;;;;;;;;;;;;16.09;54.83;100233.91;5017240;28;1167;-51
2023/04/21 03:23:07;;;;;;;;;;;;;;;15.84;55.32;100243.09;5018455;28;1429;-49
2023/04/21 03:25:33;;;;;;;;;;;;;;;15.67;55.06;100241.47;5017160;28;1139;-47
2023/04/21 03:27:59;;;;;;;;;;;;;;;16.32;54.85;100243.34;5017048;28;1167;-48
2023/04/21 03:30:25;;;;;;;;;;;;;;;17.54;51.96;100239.78;5023546;28;1216;-47
2023/04/21 03:32:51;;;;;;;;;;;;;;;16.46;54.30;100248.22;5018122;28;1036;-48
2023/04/21 03:35:16;;;;;;;;;;;;;;;16.08;55.07;100232.25;5018022;28;1032;-50
2023/04/21 03:37:42;;;;;;;;;;;;;;;15.87;55.14;100235.09;5016680;28;1910;-49
2023/04/21 03:40:08;;;;;;;;;;;;;;;15.73;55.19;100236.78;5016621;28;1056;-48
2023/04/21 03:42:36;;;;;;;;;;;;;;;15.58;54.99;100234.94;5016987;28;885;-50
2023/04/21 03:45:02;;;;;;;;;;;;;;;16.52;54.66;100231.41;5018058;28;1092;-49
2023/04/21 03:47:31;;;;;;;;;;;;;;;16.92;53.14;100228.63;5033048;28;1295;-54
2023/04/21 03:49:57;;;;;;;;;;;;;;;16.16;55.00;100241.81;5017986;28;1040;-53
2023/04/21 03:52:22;;;;;;;;;;;;;;;15.89;55.20;100240.31;5017792;28;1420;-49
2023/04/21 03:54:48;;;;;;;;;;;;;;;15.77;55.34;100243.34;5024903;28;942;-47
2023/04/21 03:57:14;;;;;;;;;;;;;;;17.24;52.59;100243.72;5017591;28;1906;-52
2023/04/21 03:59:39;;;;;;;;;;;;;;;16.77;53.37;100246.03;5017436;28;1023;-52
2023/04/21 04:02:05;;;;;;;;;;;;;;;16.17;54.73;100247.03;5017333;28;1068;-52
2023/04/21 04:04:30;;;;;;;;;;;;;;;15.90;55.18;100248.25;5017458;28;1136;-51
2023/04/21 04:06:56;;;;;;;;;;;;;;;15.80;55.04;100252.97;5018451;28;948;-50
2023/04/21 04:09:22;;;;;;;;;;;;;;;16.15;54.85;100260.19;5017990;28;1083;-51
2023/04/21 04:11:47;;;;;;;;;;;;;;;17.50;51.91;100260.75;5017439;28;1012;-53
2023/04/21 04:14:13;;;;;;;;;;;;;;;16.60;54.08;100268.41;5017487;28;1070;-54
2023/04/21 04:16:40;;;;;;;;;;;;;;;16.13;54.89;100267.91;5017570;28;1191;-50
2023/04/21 04:19:05;;;;;;;;;;;;;;;15.89;55.04;100267.72;5025130;28;1906;-52
2023/04/21 04:21:32;;;;;;;;;;;;;;;15.75;55.00;100275.69;5015776;28;1313;-47
2023/04/21 04:23:57;;;;;;;;;;;;;;;15.64;54.85;100272.19;5017390;28;1047;-47
2023/04/21 04:26:24;;;;;;;;;;;;;;;15.54;54.95;100272.22;5016493;28;1257;-52
2023/04/21 04:28:49;;;;;;;;;;;;;;;16.60;54.37;100280.19;5017225;28;1412;-49
2023/04/21 04:31:16;;;;;;;;;;;;;;;17.24;52.48;100279.44;5030190;28;1166;-49
2023/04/21 04:33:41;;;;;;;;;;;;;;;16.28;54.78;100280.69;5020668;28;1150;-52
2023/04/21 04:36:07;;;;;;;;;;;;;;;15.95;55.06;100285.81;5017068;28;1099;-48
2023/04/21 04:38:36;;;;;;;;;;;;;;;15.78;55.20;100282.53;5016988;28;1906;-43
2023/04/21 04:41:02;;;;;;;;;;;;;;;15.64;55.31;100280.41;5022481;28;1193;-50
2023/04/21 04:43:28;;;;;;;;;;;;;;;16.63;54.29;100283.47;5014376;28;1431;-50
2023/04/21 04:45:53;;;;;;;;;;;;;;;17.12;52.87;100287.22;5027046;28;1273;-51
2023/04/21 04:48:19;;;;;;;;;;;;;;;16.22;54.79;100282.63;5013168;28;1441;-53
2023/04/21 04:50:45;;;;;;;;;;;;;;;16.00;54.91;100279.47;5006648;28;997;-55
2023/04/21 04:53:10;;;;;;;;;;;;;;;15.83;55.62;100285.31;5025383;28;1036;-51
2023/04/21 04:55:36;;;;;;;;;;;;;;;17.22;52.65;100285.22;5021423;28;1130;-54
2023/04/21 04:58:02;;;;;;;;;;;;;;;16.90;52.98;100283.00;5016792;28;1910;-52
2023/04/21 05:00:28;;;;;;;;;;;;;;;16.27;54.71;100289.19;5017189;28;1040;-51
2023/04/21 05:02:53;;;;;;;;;;;;;;;16.04;54.80;100286.84;5016632;28;1183;-47
2023/04/21 05:05:20;;;;;;;;;;;;;;;16.05;55.62;100293.97;5015802;28;1217;-51
2023/04/21 05:07:46;;;;;;;;;;;;;;;16.65;53.49;100286.75;5016505;28;1047;-45
2023/04/21 05:10:11;;;;;;;;;;;;;;;15.88;53.51;100286.09;5016560;28;1012;-50
2023/04/21 05:12:37;;;;;;;;;;;;;;;15.62;52.25;100276.31;5016565;28;1063;-50
2023/04/21 05:15:03;;;;;;;;;;;;;;;16.50;53.83;100287.69;5016864;28;1194;-48
2023/04/21 05:17:29;;;;;;;;;;;;;;;15.96;53.27;100287.44;5016650;28;1914;-46
2023/04/21 05:19:55;;;;;;;;;;;;;;;15.65;51.70;100287.53;5016399;28;1122;-50
2023/04/21 05:22:21;;;;;;;;;;;;;;;15.58;50.85;100278.78;5019421;28;1203;-45
2023/04/21 05:24:47;;;;;;;;;;;;;;;15.69;51.02;100291.34;5016227;28;1217;-45
2023/04/21 05:27:12;;;;;;;;;;;;;;;16.32;52.58;100295.47;5016886;28;1118;-49
2023/04/21 05:29:38;;;;;;;;;;;;;;;15.73;52.01;100286.13;5021804;28;1242;-51
2023/04/21 05:32:04;;;;;;;;;;;;;;;15.54;50.96;100288.66;5007508;28;999;-50
2023/04/21 05:34:29;;;;;;;;;;;;;;;16.53;51.78;100284.38;5009808;28;1033;-54
2023/04/21 05:36:55;;;;;;;;;;;;;;;15.85;51.55;100288.56;5006615;28;1223;-52
2023/04/21 05:39:21;;;;;;;;;;;;;;;15.66;50.55;100286.44;5017704;28;1910;-51
2023/04/21 05:41:46;;;;;;;;;;;;;;;16.75;51.30;100279.25;5028456;28;1174;-48
2023/04/21 05:44:12;;;;;;;;;;;;;;;15.92;51.68;100278.13;5020025;28;1063;-49
2023/04/21 05:46:38;;;;;;;;;;;;;;;15.68;50.58;100284.25;5019525;28;1245;-51
2023/04/21 05:49:03;;;;;;;;;;;;;;;15.54;49.92;100277.69;5014697;28;1200;-52
2023/04/21 05:51:29;;;;;;;;;;;;;;;16.43;51.32;100283.31;5010961;28;1144;-51
2023/04/21 05:53:54;;;;;;;;;;;;;;;15.82;50.81;100284.50;5013762;28;1124;-51
2023/04/21 05:56:21;;;;;;;;;;;;;;;16.13;51.05;100278.88;5013260;28;1319;-51
2023/04/21 05:58:46;;;;;;;;;;;;;;;16.40;51.54;100288.59;5019758;28;1905;-54
2023/04/21 06:01:12;;;;;;;;;;;;;;;15.84;50.72;100271.31;5019070;28;1149;-49
2023/04/21 06:03:37;;;;;;;;;;;;;;;16.72;51.37;100285.34;5019869;28;1229;-49
2023/04/21 06:06:03;;;;;;;;;;;;;;;16.01;51.31;100276.44;5021934;28;905;-50
2023/04/21 06:08:29;;;;;;;;;;;;;;;15.79;50.04;100275.97;5007875;28;1067;-50
2023/04/21 06:10:54;;;;;;;;;;;;;;;16.91;50.35;100287.41;5019443;28;972;-50
2023/04/21 06:13:20;;;;;;;;;;;;;;;16.10;50.82;100289.56;5019367;28;1110;-48
2023/04/21 06:15:45;;;;;;;;;;;;;;;17.45;50.72;100296.53;5019607;28;1116;-51
2023/04/21 06:18:11;;;;;;;;;;;;;;;17.07;51.41;100297.16;5028721;28;1910;-47
2023/04/21 06:20:36;;;;;;;;;;;;;;;16.41;51.60;100317.63;5019366;28;1079;-50
2023/04/21 06:23:02;;;;;;;;;;;;;;;16.20;50.11;100316.94;5021560;28;1198;-56
2023/04/21 06:25:28;;;;;;;;;;;;;;;15.98;49.50;100331.84;5019692;28;1059;-53
2023/04/21 06:27:55;;;;;;;;;;;;;;;16.70;51.47;100336.94;5019390;28;1118;-50
2023/04/21 06:30:20;;;;;;;;;;;;;;;16.10;50.85;100333.47;5023134;28;913;-47
2023/04/21 06:32:47;;;;;;;;;;;;;;;16.11;50.46;100332.34;5018798;28;1103;-51
2023/04/21 06:35:13;;;;;;;;;;;;;;;16.53;51.35;100337.34;5019218;28;1127;-51
2023/04/21 06:37:39;;;;;;;;;;;;;;;16.15;50.58;100336.19;5019251;28;1981;-51
2023/04/21 06:40:05;;;;;;;;;;;;;;;15.92;49.68;100338.44;5019438;28;1114;-51
2023/04/21 06:42:31;;;;;;;;;;;;;;;15.86;48.88;100331.34;5030351;28;1111;-51
2023/04/21 06:44:56;;;;;;;;;;;;;;;15.83;49.24;100338.22;5018951;28;1118;-52
2023/04/21 06:47:22;;;;;;;;;;;;;;;16.19;50.55;100346.31;5018255;28;1070;-50
2023/04/21 06:49:47;;;;;;;;;;;;;;;15.85;49.59;100351.63;5018768;28;1115;-53
2023/04/21 06:52:14;;;;;;;;;;;;;;;15.72;48.97;100344.78;5011613;28;1330;-53
2023/04/21 06:54:40;;;;;;;;;;;;;;;15.57;48.34;100338.25;5014950;28;962;-50
2023/04/21 06:57:05;;;;;;;;;;;;;;;16.83;49.65;100345.66;5018403;28;1983;-52
2023/04/21 06:59:31;;;;;;;;;;;;;;;16.14;50.53;100340.03;5018600;28;1110;-51
2023/04/21 07:01:56;;;;;;;;;;;;;;;16.24;50.95;100346.28;5018361;28;1257;-52
2023/04/21 07:04:22;;;;;;;;;;;;;;;16.98;50.86;100347.50;5018509;28;1058;-49
2023/04/21 07:06:48;;;;;;;;;;;;;;;16.28;50.89;100352.00;5028350;28;1104;-51
2023/04/21 07:09:14;;;;;;;;;;;;;;;15.96;49.90;100353.25;5018240;28;1218;-51
2023/04/21 07:11:39;;;;;;;;;;;;;;;15.89;48.92;100349.97;5018300;28;1194;-48
2023/04/21 07:14:05;;;;;;;;;;;;;;;16.74;50.67;100349.00;5018407;28;1067;-52
2023/04/21 07:16:30;;;;;;;;;;;;;;;16.15;50.32;100341.66;5018391;28;1067;-51
2023/04/21 07:18:56;;;;;;;;;;;;;;;15.88;49.63;100342.88;5021731;28;1922;-51
2023/04/21 07:21:22;;;;;;;;;;;;;;;16.06;49.63;100338.66;5018650;28;1024;-51
2023/04/21 07:23:47;;;;;;;;;;;;;;;16.81;50.22;100343.19;5018199;28;1055;-51
2023/04/21 07:26:13;;;;;;;;;;;;;;;16.21;50.35;100335.03;5017771;28;1047;-47
2023/04/21 07:28:41;;;;;;;;;;;;;;;15.92;49.38;100332.97;5018030;28;1079;-52
2023/04/21 07:31:06;;;;;;;;;;;;;;;15.83;48.73;100340.94;5017894;28;892;-47
2023/04/21 07:33:32;;;;;;;;;;;;;;;16.87;49.76;100344.81;5018362;28;1076;-48
2023/04/21 07:35:57;;;;;;;;;;;;;;;16.11;50.41;100332.34;5017987;28;1198;-46
2023/04/21 07:38:23;;;;;;;;;;;;;;;16.52;50.35;100335.72;5017689;28;1991;-49
2023/04/21 07:40:49;;;;;;;;;;;;;;;16.67;50.59;100329.28;5017424;28;1233;-45
2023/04/21 07:43:15;;;;;;;;;;;;;;;16.19;49.94;100329.84;5025295;28;917;-49
2023/04/21 07:45:40;;;;;;;;;;;;;;;15.90;49.62;100329.69;5017640;28;1147;-43
2023/04/21 07:48:06;;;;;;;;;;;;;;;16.94;50.24;100336.25;5011877;28;1418;-46
2023/04/21 07:50:32;;;;;;;;;;;;;;;16.42;50.06;100336.59;5006405;28;1508;-50
2023/04/21 07:52:57;;;;;;;;;;;;;;;16.01;49.67;100325.81;5016929;28;1012;-50
2023/04/21 07:55:23;;;;;;;;;;;;;;;16.89;49.93;100336.31;5030284;28;921;-51
2023/04/21 07:57:49;;;;;;;;;;;;;;;16.23;50.24;100330.13;5017917;28;1973;-47
2023/04/21 08:00:15;;;;;;;;;;;;;;;15.94;49.21;100330.78;5017150;28;1032;-46
2023/04/21 08:02:40;;;;;;;;;;;;;;;16.97;49.59;100311.00;5017338;28;1143;-49
2023/04/21 08:05:06;;;;;;;;;;;;;;;16.21;50.10;100324.06;5017452;28;1126;-45
2023/04/21 08:07:31;;;;;;;;;;;;;;;15.96;49.21;100331.31;5017615;28;913;-46
2023/04/21 08:09:57;;;;;;;;;;;;;;;16.61;49.95;100338.66;5017263;28;1111;-45
2023/04/21 08:12:23;;;;;;;;;;;;;;;16.11;49.74;100346.88;5013506;28;1374;-48
2023/04/21 08:14:49;;;;;;;;;;;;;;;15.89;49.17;100347.25;5017094;28;957;-50
2023/04/21 08:17:15;;;;;;;;;;;;;;;16.05;49.23;100350.75;5016893;28;1906;-51
2023/04/21 08:19:40;;;;;;;;;;;;;;;16.87;49.58;100357.72;5019484;28;920;-47
2023/04/21 08:22:06;;;;;;;;;;;;;;;16.11;50.18;100346.88;5020345;28;1182;-46
2023/04/21 08:24:31;;;;;;;;;;;;;;;16.00;48.77;100356.25;5016964;28;1086;-47
2023/04/21 08:26:57;;;;;;;;;;;;;;;16.51;49.97;100355.19;5016859;28;1086;-47
2023/04/21 08:29:22;;;;;;;;;;;;;;;16.06;49.53;100349.63;5016999;28;1083;-42
2023/04/21 08:31:48;;;;;;;;;;;;;;;15.86;48.96;100347.81;5013585;28;1027;-50
2023/04/21 08:34:13;;;;;;;;;;;;;;;17.14;49.21;100350.94;5005466;28;1084;-48
2023/04/21 08:36:40;;;;;;;;;;;;;;;16.18;49.77;100352.06;5014429;28;1247;-50
2023/04/21 08:39:06;;;;;;;;;;;;;;;16.06;48.85;100347.75;5016662;28;1917;-49
2023/04/21 08:41:31;;;;;;;;;;;;;;;16.64;49.55;100349.06;5016852;28;1267;-49
2023/04/21 08:43:57;;;;;;;;;;;;;;;16.10;49.30;100350.72;5020682;28;953;-50
2023/04/21 08:46:22;;;;;;;;;;;;;;;16.93;49.28;100351.13;5016354;28;1215;-52
2023/04/21 08:48:48;;;;;;;;;;;;;;;16.47;49.74;100349.47;5006329;28;1310;-50
2023/04/21 08:51:15;;;;;;;;;;;;;;;16.08;49.20;100347.44;5011590;28;1020;-47
2023/04/21 08:53:40;;;;;;;;;;;;;;;17.06;49.07;100344.94;5015124;28;1234;-52
2023/04/21 08:56:06;;;;;;;;;;;;;;;16.29;49.65;100347.38;5032978;28;950;-52
2023/04/21 08:58:32;;;;;;;;;;;;;;;16.12;48.84;100347.69;5011931;28;1914;-50
2023/04/21 09:00:57;;;;;;;;;;;;;;;17.04;49.20;100347.19;5016596;28;1179;-54
2023/04/21 09:03:23;;;;;;;;;;;;;;;16.18;49.93;100346.59;5016794;28;1310;-49
2023/04/21 09:06:04;;;;;;;;;;;;;;;16.07;48.78;100340.31;5016551;28;1322;-53
2023/04/21 09:08:29;;;;;;;;;;;;;;;16.87;48.91;100347.56;5005266;28;1064;-50
2023/04/21 09:10:55;;;;;;;;;;;;;;;16.14;49.48;100351.00;4996912;28;1230;-50
2023/04/21 09:13:22;;;;;;;;;;;;;;;15.96;48.50;100344.19;5014365;28;1079;-48
2023/04/21 09:15:48;;;;;;;;;;;;;;;16.58;49.11;100345.53;5015334;28;1203;-51
2023/04/21 09:18:21;;;;;;;;;;;;;;;16.08;48.88;100326.31;5016630;28;1975;-47
2023/04/21 09:20:48;;;;;;;;;;;;;;;15.94;48.45;100333.50;5016371;28;1458;-44
2023/04/21 09:23:13;;;;;;;;;;;;;;;17.31;48.40;100326.63;5022309;28;1158;-48
2023/04/21 09:25:40;;;;;;;;;;;;;;;16.32;49.60;100325.66;5016011;28;1178;-50
2023/04/21 09:28:08;;;;;;;;;;;;;;;16.10;48.80;100325.22;5016215;28;1213;-54
2023/04/21 09:30:41;;;;;;;;;;;;;;;17.15;48.72;100319.63;5018228;28;1127;-52
2023/04/21 09:33:06;;;;;;;;;;;;;;;16.33;49.41;100316.34;5008225;28;1095;-52
2023/04/21 09:35:32;;;;;;;;;;;;;;;17.71;48.40;100323.72;5015936;28;1088;-52
2023/04/21 09:37:59;;;;;;;;;;;;;;;17.16;49.70;100324.81;5016694;28;1938;-44
2023/04/21 09:40:25;;;;;;;;;;;;;;;16.58;49.87;100325.53;5027958;28;1134;-54
2023/04/21 09:42:50;;;;;;;;;;;;;;;16.39;48.83;100325.34;5018424;28;1092;-50
2023/04/21 09:45:16;;;;;;;;;;;;;;;16.10;48.47;100317.00;5015516;28;1065;-52
2023/04/21 09:47:42;;;;;;;;;;;;;;;16.08;47.64;100315.34;5016055;28;1386;-48
2023/04/21 09:50:08;;;;;;;;;;;;;;;15.93;47.54;100323.66;5016253;28;1237;-53
2023/04/21 09:52:33;;;;;;;;;;;;;;;16.90;48.89;100322.28;5015976;28;1149;-52
2023/04/21 09:55:00;;;;;;;;;;;;;;;16.27;49.02;100322.13;5019117;28;1120;-54
2023/04/21 09:57:26;;;;;;;;;;;;;;;15.95;48.87;100315.13;5021549;28;1977;-51
2023/04/21 09:59:57;;;;;;;;;;;;;;;15.81;48.35;100309.44;5014367;28;1286;-55
2023/04/21 10:02:26;;;;;;;;;;;;;;;16.51;48.45;100316.75;5014931;28;1160;-52
2023/04/21 10:04:51;;;;;;;;;;;;;;;16.37;49.42;100311.09;5014834;28;1166;-51
2023/04/21 10:07:17;;;;;;;;;;;;;;;16.01;48.70;100303.88;5020559;28;1063;-52
2023/04/21 10:09:44;;;;;;;;;;;;;;;15.88;48.08;100308.03;5015938;28;1103;-49
2023/04/21 10:12:09;;;;;;;;;;;;;;;15.97;48.18;100311.00;5015556;28;1159;-53
2023/04/21 10:14:35;;;;;;;;;;;;;;;16.95;48.90;100326.91;5014153;28;1214;-55
2023/04/21 10:17:04;;;;;;;;;;;;;;;16.28;49.25;100323.78;5015893;28;1183;-47
2023/04/21 10:19:35;;;;;;;;;;;;;;;15.97;48.86;100319.25;5022426;28;1976;-50
2023/04/21 10:22:00;;;;;;;;;;;;;;;16.84;48.91;100319.84;5026224;28;1114;-52
2023/04/21 10:24:29;;;;;;;;;;;;;;;16.42;49.54;100309.16;5015868;28;1052;-42
2023/04/21 10:26:58;;;;;;;;;;;;;;;16.04;48.90;100314.28;5017858;28;1055;-49
2023/04/21 10:29:33;;;;;;;;;;;;;;;15.91;48.33;100314.88;5018951;28;1491;-53
2023/04/21 10:31:58;;;;;;;;;;;;;;;16.61;49.05;100324.94;5023720;28;1055;-54
2023/04/21 10:34:24;;;;;;;;;;;;;;;16.10;48.93;100319.75;5019004;28;1146;-48
2023/04/21 10:37:06;;;;;;;;;;;;;;;16.02;48.68;100316.50;5018990;28;1071;-47
2023/04/21 10:39:42;;;;;;;;;;;;;;;16.50;49.06;100315.13;5017160;28;1981;-54
2023/04/21 10:42:21;;;;;;;;;;;;;;;16.04;48.95;100317.00;5015179;28;1269;-49
2023/04/21 10:44:53;;;;;;;;;;;;;;;16.37;48.97;100317.41;5015017;28;1391;-53
2023/04/21 10:47:28;;;;;;;;;;;;;;;16.87;49.05;100311.03;5006735;28;1132;-54
2023/04/21 10:49:57;;;;;;;;;;;;;;;16.20;49.07;100308.72;5005707;28;1199;-53
2023/04/21 10:52:30;;;;;;;;;;;;;;;15.99;48.50;100308.00;5004945;28;1360;-50
2023/04/21 10:54:55;;;;;;;;;;;;;;;17.14;48.38;100306.97;5005591;28;1360;-47
2023/04/21 10:57:21;;;;;;;;;;;;;;;16.28;49.30;100313.59;5024344;28;1906;-48
2023/04/21 10:59:46;;;;;;;;;;;;;;;16.07;48.43;100308.25;5012102;28;1202;-54
2023/04/21 11:02:13;;;;;;;;;;;;;;;16.99;48.56;100305.19;5008931;28;1282;-54
2023/04/21 11:04:40;;;;;;;;;;;;;;;16.26;49.39;100313.09;5016637;28;1008;-51
2023/04/21 11:07:15;;;;;;;;;;;;;;;16.01;48.66;100314.84;5007803;28;1545;-52
2023/04/21 11:09:41;;;;;;;;;;;;;;;16.54;48.97;100310.72;5023210;28;1138;-46
2023/04/21 11:12:08;;;;;;;;;;;;;;;16.64;49.16;100329.84;5015520;28;1052;-46
2023/04/21 11:14:37;;;;;;;;;;;;;;;16.24;48.91;100326.25;5029084;28;1149;-49
2023/04/21 11:17:02;;;;;;;;;;;;;;;15.94;48.43;100314.31;5020449;28;1039;-52
2023/04/21 11:19:30;;;;;;;;;;;;;;;15.94;47.72;100316.25;5021134;28;1914;-52
2023/04/21 11:21:56;;;;;;;;;;;;;;;16.73;48.71;100302.63;5022438;28;1086;-55
2023/04/21 11:24:21;;;;;;;;;;;;;;;16.03;49.34;100320.03;5001417;28;1317;-51
2023/04/21 11:26:47;;;;;;;;;;;;;;;16.22;48.96;100310.06;5017735;28;1079;-49
2023/04/21 11:29:13;;;;;;;;;;;;;;;16.53;49.10;100303.59;5018188;28;1153;-49
2023/04/21 11:31:39;;;;;;;;;;;;;;;16.00;49.00;100296.72;5020961;28;1197;-53
2023/04/21 11:34:05;;;;;;;;;;;;;;;15.91;48.09;100288.28;5018168;28;1103;-47
2023/04/21 11:36:34;;;;;;;;;;;;;;;17.06;48.34;100295.50;5017339;28;1067;-48
2023/04/21 11:39:09;;;;;;;;;;;;;;;16.30;48.91;100283.97;5017729;28;1918;-53
2023/04/21 11:41:35;;;;;;;;;;;;;;;17.86;47.65;100300.72;5017496;28;1075;-52
2023/04/21 11:44:01;;;;;;;;;;;;;;;17.42;49.06;100291.63;5023258;28;1095;-47
2023/04/21 11:46:26;;;;;;;;;;;;;;;16.63;49.69;100302.69;5016177;28;1064;-50
2023/04/21 11:49:01;;;;;;;;;;;;;;;16.40;48.69;100289.38;5002517;28;1623;-51
2023/04/21 11:51:37;;;;;;;;;;;;;;;16.22;47.97;100295.53;5017008;28;1095;-49
2023/04/21 11:54:06;;;;;;;;;;;;;;;16.07;47.60;100301.91;5010288;28;1129;-48
2023/04/21 11:56:35;;;;;;;;;;;;;;;17.17;48.92;100300.94;5007198;28;1285;-49
2023/04/21 11:59:05;;;;;;;;;;;;;;;16.34;49.40;100295.19;5017291;28;1906;-50
2023/04/21 12:01:30;;;;;;;;;;;;;;;16.08;48.81;100298.91;5015973;28;1080;-47
2023/04/21 12:03:56;;;;;;;;;;;;;;;16.01;47.92;100297.56;5017543;28;1071;-47
2023/04/21 12:06:27;;;;;;;;;;;;;;;16.50;48.60;100301.41;5017314;28;1099;-52
2023/04/21 12:08:58;;;;;;;;;;;;;;;16.55;49.25;100317.84;5028741;28;1143;-50
2023/04/21 12:11:24;;;;;;;;;;;;;;;16.18;48.81;100302.69;5030955;28;1138;-51
2023/04/21 12:13:50;;;;;;;;;;;;;;;16.07;47.95;100296.44;5015424;28;1170;-48
2023/04/21 12:16:15;;;;;;;;;;;;;;;15.87;47.51;100308.31;5017281;28;1119;-47
2023/04/21 12:18:41;;;;;;;;;;;;;;;16.68;48.32;100294.44;5016867;28;1974;-48
2023/04/21 12:21:07;;;;;;;;;;;;;;;16.21;48.50;100308.41;5024236;28;925;-46
2023/04/21 12:23:32;;;;;;;;;;;;;;;16.01;48.10;100290.16;5023087;28;1150;-49
2023/04/21 12:25:58;;;;;;;;;;;;;;;16.73;48.52;100297.13;5017494;28;1019;-46
2023/04/21 12:28:24;;;;;;;;;;;;;;;16.25;48.89;100297.72;5016522;28;1059;-44
2023/04/21 12:30:51;;;;;;;;;;;;;;;16.00;48.29;100310.44;5016839;28;1163;-46
2023/04/21 12:33:17;;;;;;;;;;;;;;;16.37;48.61;100289.97;5028985;28;1117;-52
2023/04/21 12:35:42;;;;;;;;;;;;;;;16.29;48.72;100271.34;5016936;28;1043;-51
2023/04/21 12:38:10;;;;;;;;;;;;;;;16.08;48.38;100287.91;5016749;28;1981;-48
2023/04/21 12:40:35;;;;;;;;;;;;;;;15.91;47.70;100276.50;5017036;28;1130;-49
2023/04/21 12:43:01;;;;;;;;;;;;;;;16.63;48.56;100287.03;5016225;28;1041;-48